Red Diamond — A8UM9 — position and weather

sailwx.info

Track history (hours):
 
Tides and Currents Weather Stations Pressure Air Temp Water Temp Dewpoint Dewpoint Depression Visibility Wind Speed Wind Dir Waves Ship Positions

Red Diamond

Last reported at 2015-Jun-11 22:32 UTC. Time now 2015-Jul-03 20:17 UTC.
Position N 35°53' W 025°52'.
Warning: this ship's position is 21 days out of date.

Length 190 m; draft 7.5 m.

Type: Cargo ship. MMSI: 636014524.

Date/timePositionNaut miles runAvg speedWind from/ knotsBaromVisibWave heightAir tempDewpointWater temp
2015-Jun-11 22:32N 35°53' W 025°52'1110.9
2015-Jun-11 21:33N 35°54' W 025°39'1110.9
2015-Jun-11 20:33N 35°55' W 025°25'1110.8
2015-Jun-11 19:33N 35°56' W 025°12'1110.5
2015-Jun-11 18:33N 35°57' W 024°59'1110.8
2015-Jun-11 17:33N 35°58' W 024°46'1110.7
2015-Jun-11 16:33N 35°59' W 024°33'1110.7
2015-Jun-11 15:33N 36°00' W 024°20'1110.6
2015-Jun-11 14:33N 36°01' W 024°07'1010.3
2015-Jun-11 13:33N 36°02' W 023°54'43910.1
2015-Jun-09 18:07N 36°16' W 014°51'29 9.8
2015-Jun-09 15:07N 36°16' W 014°15'6 9.7
2015-Jun-09 14:30N 36°16' W 014°07'3410.0
2015-Jun-09 11:03N 36°15' W 013°24'48 9.7
2015-Jun-09 06:08N 36°14' W 012°25'5 9.2
2015-Jun-09 05:33N 36°14' W 012°18'9 9.1
2015-Jun-09 04:33N 36°14' W 012°07'9 9.2
2015-Jun-09 03:33N 36°14' W 011°56'9 9.2
2015-Jun-09 02:33N 36°14' W 011°44'9 9.3
2015-Jun-09 01:33N 36°14' W 011°33'9 9.4
2015-Jun-09 00:33N 36°14' W 011°21'10 9.4
2015-Jun-08 23:28N 36°14' W 011°08'4910.0
2015-Jun-08 18:30N 36°12' W 010°07'1010.3
2015-Jun-08 17:33N 36°12' W 009°55'326 7.5
2015-Jun-06 22:19N 36°19' W 003°11'911.1
2015-Jun-06 21:33N 36°20' W 003°00'1111.1
2015-Jun-06 20:34N 36°22' W 002°47'1211.6
2015-Jun-06 19:34N 36°23' W 002°33'1211.6
2015-Jun-06 18:33N 36°25' W 002°18'1111.4
2015-Jun-06 17:34N 36°27' W 002°04'2311.3
2015-Jun-06 15:31N 36°32' W 001°36'1411.4
2015-Jun-06 14:18N 36°36' W 001°19'811.4
2015-Jun-06 13:33N 36°38' W 001°09'1111.5
2015-Jun-06 12:33N 36°40' W 000°55'1211.7
2015-Jun-06 11:33N 36°43' W 000°41'1212.0
2015-Jun-06 10:33N 36°46' W 000°27'1211.9
2015-Jun-06 09:33N 36°47' W 000°12'1211.6
2015-Jun-06 08:33N 36°49' E 000°02'1111.2
2015-Jun-06 07:33N 36°50' E 000°16'1110.8
2015-Jun-06 06:33N 36°52' E 000°30'1010.3
2015-Jun-06 05:34N 36°53' E 000°42'1010.5
2015-Jun-06 04:34N 36°54' E 000°55'1110.9
2015-Jun-06 03:33N 36°56' E 001°09'1110.9
2015-Jun-06 02:34N 36°57' E 001°22'1110.8
2015-Jun-06 01:33N 36°58' E 001°36'1110.8
2015-Jun-06 00:33N 36°60' E 001°49'1110.6
2015-Jun-05 23:33N 37°01' E 002°03'1110.6
2015-Jun-05 22:33N 37°02' E 002°16'1111.0
2015-Jun-05 21:34N 37°04' E 002°29'1111.0
2015-Jun-05 20:33N 37°05' E 002°43'1111.3
2015-Jun-05 19:33N 37°06' E 002°57'1111.1
2015-Jun-05 18:32N 37°08' E 003°11'1111.1
2015-Jun-05 17:34N 37°09' E 003°25'1111.0
2015-Jun-05 16:33N 37°11' E 003°38'1211.0
2015-Jun-05 15:28N 37°12' E 003°53'1010.8
2015-Jun-05 14:33N 37°13' E 004°06'1111.1
2015-Jun-05 13:31N 37°15' E 004°20'2211.2
2015-Jun-05 11:31N 37°17' E 004°48'1211.0
2015-Jun-05 10:28N 37°19' E 005°02'3311.4
2015-Jun-05 07:34N 37°23' E 005°44'1212.2
2015-Jun-05 06:33N 37°25' E 005°59'1212.6
2015-Jun-05 05:33N 37°26' E 006°14'1312.1
2015-Jun-05 04:27N 37°28' E 006°31'2211.5
2015-Jun-05 02:33N 37°31' E 006°59'1211.6
2015-Jun-05 01:33N 37°32' E 007°13'1211.4
2015-Jun-05 00:28N 37°34' E 007°28'2311.6
2015-Jun-04 22:29N 37°37' E 007°57'1111.8
2015-Jun-04 21:32N 37°38' E 008°11'1312.3
2015-Jun-04 20:28N 37°40' E 008°28'1212.4
2015-Jun-04 19:31N 37°41' E 008°42'1212.1
2015-Jun-04 18:33N 37°43' E 008°57'1211.6
2015-Jun-04 17:33N 37°42' E 009°12'1111.5
2015-Jun-04 16:33N 37°41' E 009°26'1111.2
2015-Jun-04 15:33N 37°41' E 009°40'1110.9
2015-Jun-04 14:34N 37°40' E 009°54'1111.4
2015-Jun-04 13:33N 37°39' E 010°08'1211.7
2015-Jun-04 12:33N 37°37' E 010°23'1111.4
2015-Jun-04 11:33N 37°34' E 010°37'1111.3
2015-Jun-04 10:34N 37°32' E 010°51'1311.2
2015-Jun-04 09:24N 37°29' E 011°07'911.0
2015-Jun-04 08:33N 37°25' E 011°17'1111.1
2015-Jun-04 07:34N 37°19' E 011°29'1111.3
2015-Jun-04 06:34N 37°13' E 011°41'1111.3
2015-Jun-04 05:33N 37°07' E 011°53'1111.3
2015-Jun-04 04:34N 37°02' E 012°06'1111.2
2015-Jun-04 03:33N 36°56' E 012°18'1111.4
2015-Jun-04 02:34N 36°50' E 012°30'1111.4
2015-Jun-04 01:33N 36°45' E 012°43'1211.5
2015-Jun-04 00:33N 36°40' E 012°56'1111.2
2015-Jun-03 23:33N 36°35' E 013°08'1111.0
2015-Jun-03 22:33N 36°30' E 013°21'1110.9
2015-Jun-03 21:34N 36°26' E 013°33'1111.1
2015-Jun-03 20:34N 36°21' E 013°45'1111.0
2015-Jun-03 19:34N 36°16' E 013°57'1110.9
2015-Jun-03 18:34N 36°11' E 014°09'1111.0
2015-Jun-03 17:34N 36°05' E 014°21'1111.2
2015-Jun-03 16:34N 35°58' E 014°31'5 4.7
2015-Jun-03 15:33N 35°56' E 014°37'9 8.7
2015-Jun-03 14:33N 35°59' E 014°47'1010.4
2015-Jun-03 13:34N 35°58' E 014°60'1111.1
2015-Jun-03 12:34N 35°54' E 015°13'1110.9
2015-Jun-03 11:33N 35°52' E 015°26'1110.7
2015-Jun-03 10:32N 35°49' E 015°39'1110.8
2015-Jun-03 09:33N 35°47' E 015°51'1110.8
2015-Jun-03 08:33N 35°44' E 016°04'1110.9
2015-Jun-03 07:33N 35°41' E 016°17'1111.0
2015-Jun-03 06:32N 35°38' E 016°31'1110.9
2015-Jun-03 05:33N 35°35' E 016°43'1110.8
2015-Jun-03 04:33N 35°32' E 016°56'1010.3
2015-Jun-03 03:32N 35°30' E 017°09'10 9.9
2015-Jun-03 02:33N 35°28' E 017°20'10 9.7
2015-Jun-03 01:33N 35°26' E 017°32'11 9.6
2015-Jun-03 00:27N 35°24' E 017°45'9 9.8
2015-Jun-02 23:33N 35°22' E 017°55'1010.2
2015-Jun-02 22:33N 35°20' E 018°08'1110.3
2015-Jun-02 21:26N 35°17' E 018°21'1010.7
2015-Jun-02 20:31N 35°15' E 018°33'  
Track history (hours):
 
Tides and Currents Weather Stations Pressure Air Temp Water Temp Dewpoint Dewpoint Depression Visibility Wind Speed Wind Dir Waves Ship Positions

Red Diamond

Last reported at 2015-Jun-11 22:32 UTC. Time now 2015-Jul-03 20:17 UTC.
Position N 35°53' W 025°52'.
Warning: this ship's position is 21 days out of date.

Length 190 m; draft 7.5 m.

Type: Cargo ship. MMSI: 636014524.

Date/timePositionNaut miles runAvg speedWind from/ knotsBaromVisibWave heightAir tempDewpointWater temp
2015-Jun-11 22:32N 35°53' W 025°52'1110.9
2015-Jun-11 21:33N 35°54' W 025°39'1110.9
2015-Jun-11 20:33N 35°55' W 025°25'1110.8
2015-Jun-11 19:33N 35°56' W 025°12'1110.5
2015-Jun-11 18:33N 35°57' W 024°59'1110.8
2015-Jun-11 17:33N 35°58' W 024°46'1110.7
2015-Jun-11 16:33N 35°59' W 024°33'1110.7
2015-Jun-11 15:33N 36°00' W 024°20'1110.6
2015-Jun-11 14:33N 36°01' W 024°07'1010.3
2015-Jun-11 13:33N 36°02' W 023°54'43910.1
2015-Jun-09 18:07N 36°16' W 014°51'29 9.8
2015-Jun-09 15:07N 36°16' W 014°15'6 9.7
2015-Jun-09 14:30N 36°16' W 014°07'3410.0
2015-Jun-09 11:03N 36°15' W 013°24'48 9.7
2015-Jun-09 06:08N 36°14' W 012°25'5 9.2
2015-Jun-09 05:33N 36°14' W 012°18'9 9.1
2015-Jun-09 04:33N 36°14' W 012°07'9 9.2
2015-Jun-09 03:33N 36°14' W 011°56'9 9.2
2015-Jun-09 02:33N 36°14' W 011°44'9 9.3
2015-Jun-09 01:33N 36°14' W 011°33'9 9.4
2015-Jun-09 00:33N 36°14' W 011°21'10 9.4
2015-Jun-08 23:28N 36°14' W 011°08'4910.0
2015-Jun-08 18:30N 36°12' W 010°07'1010.3
2015-Jun-08 17:33N 36°12' W 009°55'326 7.5
2015-Jun-06 22:19N 36°19' W 003°11'911.1
2015-Jun-06 21:33N 36°20' W 003°00'1111.1
2015-Jun-06 20:34N 36°22' W 002°47'1211.6
2015-Jun-06 19:34N 36°23' W 002°33'1211.6
2015-Jun-06 18:33N 36°25' W 002°18'1111.4
2015-Jun-06 17:34N 36°27' W 002°04'2311.3
2015-Jun-06 15:31N 36°32' W 001°36'1411.4
2015-Jun-06 14:18N 36°36' W 001°19'811.4
2015-Jun-06 13:33N 36°38' W 001°09'1111.5
2015-Jun-06 12:33N 36°40' W 000°55'1211.7
2015-Jun-06 11:33N 36°43' W 000°41'1212.0
2015-Jun-06 10:33N 36°46' W 000°27'1211.9
2015-Jun-06 09:33N 36°47' W 000°12'1211.6
2015-Jun-06 08:33N 36°49' E 000°02'1111.2
2015-Jun-06 07:33N 36°50' E 000°16'1110.8
2015-Jun-06 06:33N 36°52' E 000°30'1010.3
2015-Jun-06 05:34N 36°53' E 000°42'1010.5
2015-Jun-06 04:34N 36°54' E 000°55'1110.9
2015-Jun-06 03:33N 36°56' E 001°09'1110.9
2015-Jun-06 02:34N 36°57' E 001°22'1110.8
2015-Jun-06 01:33N 36°58' E 001°36'1110.8
2015-Jun-06 00:33N 36°60' E 001°49'1110.6
2015-Jun-05 23:33N 37°01' E 002°03'1110.6
2015-Jun-05 22:33N 37°02' E 002°16'1111.0
2015-Jun-05 21:34N 37°04' E 002°29'1111.0
2015-Jun-05 20:33N 37°05' E 002°43'1111.3
2015-Jun-05 19:33N 37°06' E 002°57'1111.1
2015-Jun-05 18:32N 37°08' E 003°11'1111.1
2015-Jun-05 17:34N 37°09' E 003°25'1111.0
2015-Jun-05 16:33N 37°11' E 003°38'1211.0
2015-Jun-05 15:28N 37°12' E 003°53'1010.8
2015-Jun-05 14:33N 37°13' E 004°06'1111.1
2015-Jun-05 13:31N 37°15' E 004°20'2211.2
2015-Jun-05 11:31N 37°17' E 004°48'1211.0
2015-Jun-05 10:28N 37°19' E 005°02'3311.4
2015-Jun-05 07:34N 37°23' E 005°44'1212.2
2015-Jun-05 06:33N 37°25' E 005°59'1212.6
2015-Jun-05 05:33N 37°26' E 006°14'1312.1
2015-Jun-05 04:27N 37°28' E 006°31'2211.5
2015-Jun-05 02:33N 37°31' E 006°59'1211.6
2015-Jun-05 01:33N 37°32' E 007°13'1211.4
2015-Jun-05 00:28N 37°34' E 007°28'2311.6
2015-Jun-04 22:29N 37°37' E 007°57'1111.8
2015-Jun-04 21:32N 37°38' E 008°11'1312.3
2015-Jun-04 20:28N 37°40' E 008°28'1212.4
2015-Jun-04 19:31N 37°41' E 008°42'1212.1
2015-Jun-04 18:33N 37°43' E 008°57'1211.6
2015-Jun-04 17:33N 37°42' E 009°12'1111.5
2015-Jun-04 16:33N 37°41' E 009°26'1111.2
2015-Jun-04 15:33N 37°41' E 009°40'1110.9
2015-Jun-04 14:34N 37°40' E 009°54'1111.4
2015-Jun-04 13:33N 37°39' E 010°08'1211.7
2015-Jun-04 12:33N 37°37' E 010°23'1111.4
2015-Jun-04 11:33N 37°34' E 010°37'1111.3
2015-Jun-04 10:34N 37°32' E 010°51'1311.2
2015-Jun-04 09:24N 37°29' E 011°07'911.0
2015-Jun-04 08:33N 37°25' E 011°17'1111.1
2015-Jun-04 07:34N 37°19' E 011°29'1111.3
2015-Jun-04 06:34N 37°13' E 011°41'1111.3
2015-Jun-04 05:33N 37°07' E 011°53'1111.3
2015-Jun-04 04:34N 37°02' E 012°06'1111.2
2015-Jun-04 03:33N 36°56' E 012°18'1111.4
2015-Jun-04 02:34N 36°50' E 012°30'1111.4
2015-Jun-04 01:33N 36°45' E 012°43'1211.5
2015-Jun-04 00:33N 36°40' E 012°56'1111.2
2015-Jun-03 23:33N 36°35' E 013°08'1111.0
2015-Jun-03 22:33N 36°30' E 013°21'1110.9
2015-Jun-03 21:34N 36°26' E 013°33'1111.1
2015-Jun-03 20:34N 36°21' E 013°45'1111.0
2015-Jun-03 19:34N 36°16' E 013°57'1110.9
2015-Jun-03 18:34N 36°11' E 014°09'1111.0
2015-Jun-03 17:34N 36°05' E 014°21'1111.2
2015-Jun-03 16:34N 35°58' E 014°31'5 4.7
2015-Jun-03 15:33N 35°56' E 014°37'9 8.7
2015-Jun-03 14:33N 35°59' E 014°47'1010.4
2015-Jun-03 13:34N 35°58' E 014°60'1111.1
2015-Jun-03 12:34N 35°54' E 015°13'1110.9
2015-Jun-03 11:33N 35°52' E 015°26'1110.7
2015-Jun-03 10:32N 35°49' E 015°39'1110.8
2015-Jun-03 09:33N 35°47' E 015°51'1110.8
2015-Jun-03 08:33N 35°44' E 016°04'1110.9
2015-Jun-03 07:33N 35°41' E 016°17'1111.0
2015-Jun-03 06:32N 35°38' E 016°31'1110.9
2015-Jun-03 05:33N 35°35' E 016°43'1110.8
2015-Jun-03 04:33N 35°32' E 016°56'1010.3
2015-Jun-03 03:32N 35°30' E 017°09'10 9.9
2015-Jun-03 02:33N 35°28' E 017°20'10 9.7
2015-Jun-03 01:33N 35°26' E 017°32'11 9.6
2015-Jun-03 00:27N 35°24' E 017°45'9 9.8
2015-Jun-02 23:33N 35°22' E 017°55'1010.2
2015-Jun-02 22:33N 35°20' E 018°08'1110.3
2015-Jun-02 21:26N 35°17' E 018°21'1010.7
2015-Jun-02 20:31N 35°15' E 018°33'  

Dump ship's entire track history